sensor_id;sensor_type;location;lat;lon;timestamp;pressure;altitude;pressure_sealevel;temperature
28905;BMP280;60848;53.884;11.446;2023-09-07T00:02:16;102232.03;;;20.46
28905;BMP280;60848;53.884;11.446;2023-09-07T00:05:01;102226.41;;;20.40
28905;BMP280;60848;53.884;11.446;2023-09-07T00:07:33;102232.88;;;20.36
28905;BMP280;60848;53.884;11.446;2023-09-07T00:10:02;102236.34;;;20.33
28905;BMP280;60848;53.884;11.446;2023-09-07T00:12:31;102230.31;;;20.29
28905;BMP280;60848;53.884;11.446;2023-09-07T00:15:01;102231.09;;;20.26
28905;BMP280;60848;53.884;11.446;2023-09-07T00:17:30;102240.56;;;20.23
28905;BMP280;60848;53.884;11.446;2023-09-07T00:19:58;102233.41;;;20.20
28905;BMP280;60848;53.884;11.446;2023-09-07T00:22:27;102228.88;;;20.17
28905;BMP280;60848;53.884;11.446;2023-09-07T00:24:57;102236.09;;;20.17
28905;BMP280;60848;53.884;11.446;2023-09-07T00:27:25;102227.41;;;20.13
28905;BMP280;60848;53.884;11.446;2023-09-07T00:29:53;102222.44;;;20.11
28905;BMP280;60848;53.884;11.446;2023-09-07T00:32:22;102222.53;;;20.04
28905;BMP280;60848;53.884;11.446;2023-09-07T00:34:50;102223.69;;;20.00
28905;BMP280;60848;53.884;11.446;2023-09-07T00:37:19;102218.81;;;19.91
28905;BMP280;60848;53.884;11.446;2023-09-07T00:39:47;102220.75;;;19.87
28905;BMP280;60848;53.884;11.446;2023-09-07T00:42:17;102221.13;;;19.86
28905;BMP280;60848;53.884;11.446;2023-09-07T00:44:45;102227.56;;;19.85
28905;BMP280;60848;53.884;11.446;2023-09-07T00:47:15;102222.69;;;19.80
28905;BMP280;60848;53.884;11.446;2023-09-07T00:49:44;102226.88;;;19.77
28905;BMP280;60848;53.884;11.446;2023-09-07T00:52:14;102229.56;;;19.74
28905;BMP280;60848;53.884;11.446;2023-09-07T00:54:42;102223.13;;;19.68
28905;BMP280;60848;53.884;11.446;2023-09-07T00:57:11;102219.38;;;19.65
28905;BMP280;60848;53.884;11.446;2023-09-07T00:59:43;102224.69;;;19.62
28905;BMP280;60848;53.884;11.446;2023-09-07T01:02:11;102220.16;;;19.59
28905;BMP280;60848;53.884;11.446;2023-09-07T01:04:40;102223.59;;;19.56
28905;BMP280;60848;53.884;11.446;2023-09-07T01:07:12;102216.41;;;19.53
28905;BMP280;60848;53.884;11.446;2023-09-07T01:09:42;102214.13;;;19.51
28905;BMP280;60848;53.884;11.446;2023-09-07T01:12:14;102221.34;;;19.47
28905;BMP280;60848;53.884;11.446;2023-09-07T01:14:44;102224.41;;;19.42
28905;BMP280;60848;53.884;11.446;2023-09-07T01:17:13;102213.44;;;19.40
28905;BMP280;60848;53.884;11.446;2023-09-07T01:19:42;102218.38;;;19.35
28905;BMP280;60848;53.884;11.446;2023-09-07T01:22:12;102218.41;;;19.31
28905;BMP280;60848;53.884;11.446;2023-09-07T01:24:44;102228.63;;;19.29
28905;BMP280;60848;53.884;11.446;2023-09-07T01:27:13;102221.81;;;19.25
28905;BMP280;60848;53.884;11.446;2023-09-07T01:29:42;102227.91;;;19.22
28905;BMP280;60848;53.884;11.446;2023-09-07T01:32:10;102224.53;;;19.18
28905;BMP280;60848;53.884;11.446;2023-09-07T01:34:41;102229.44;;;19.16
28905;BMP280;60848;53.884;11.446;2023-09-07T01:37:09;102226.78;;;19.12
28905;BMP280;60848;53.884;11.446;2023-09-07T01:39:39;102230.22;;;19.09
28905;BMP280;60848;53.884;11.446;2023-09-07T01:42:08;102230.63;;;19.08
28905;BMP280;60848;53.884;11.446;2023-09-07T01:44:38;102225.69;;;19.06
28905;BMP280;60848;53.884;11.446;2023-09-07T01:47:06;102233.63;;;19.03
28905;BMP280;60848;53.884;11.446;2023-09-07T01:49:35;102229.47;;;18.98
28905;BMP280;60848;53.884;11.446;2023-09-07T01:52:04;102228.00;;;18.97
28905;BMP280;60848;53.884;11.446;2023-09-07T01:54:33;102226.88;;;18.91
28905;BMP280;60848;53.884;11.446;2023-09-07T01:57:03;102230.28;;;18.92
28905;BMP280;60848;53.884;11.446;2023-09-07T01:59:32;102228.75;;;18.91
28905;BMP280;60848;53.884;11.446;2023-09-07T02:02:00;102231.44;;;18.87
28905;BMP280;60848;53.884;11.446;2023-09-07T02:04:32;102226.88;;;18.84
28905;BMP280;60848;53.884;11.446;2023-09-07T02:07:03;102228.75;;;18.80
28905;BMP280;60848;53.884;11.446;2023-09-07T02:09:33;102234.47;;;18.79
28905;BMP280;60848;53.884;11.446;2023-09-07T02:12:06;102231.44;;;18.73
28905;BMP280;60848;53.884;11.446;2023-09-07T02:14:34;102234.88;;;18.74
28905;BMP280;60848;53.884;11.446;2023-09-07T02:17:04;102237.88;;;18.72
28905;BMP280;60848;53.884;11.446;2023-09-07T02:19:33;102236.00;;;18.69
28905;BMP280;60848;53.884;11.446;2023-09-07T02:22:02;102225.78;;;18.67
28905;BMP280;60848;53.884;11.446;2023-09-07T02:24:31;102231.06;;;18.67
28905;BMP280;60848;53.884;11.446;2023-09-07T02:26:59;102233.38;;;18.66
28905;BMP280;60848;53.884;11.446;2023-09-07T02:29:29;102232.59;;;18.61
28905;BMP280;60848;53.884;11.446;2023-09-07T02:31:57;102235.63;;;18.60
28905;BMP280;60848;53.884;11.446;2023-09-07T02:34:26;102229.94;;;18.58
28905;BMP280;60848;53.884;11.446;2023-09-07T02:36:54;102236.75;;;18.59
28905;BMP280;60848;53.884;11.446;2023-09-07T02:39:25;102239.78;;;18.54
28905;BMP280;60848;53.884;11.446;2023-09-07T02:41:53;102239.78;;;18.50
28905;BMP280;60848;53.884;11.446;2023-09-07T02:44:22;102242.06;;;18.48
28905;BMP280;60848;53.884;11.446;2023-09-07T02:46:52;102237.88;;;18.44
28905;BMP280;60848;53.884;11.446;2023-09-07T02:49:20;102241.69;;;18.43
28905;BMP280;60848;53.884;11.446;2023-09-07T02:51:49;102238.66;;;18.41
28905;BMP280;60848;53.884;11.446;2023-09-07T02:54:17;102241.31;;;18.41
28905;BMP280;60848;53.884;11.446;2023-09-07T02:56:48;102238.28;;;18.39
28905;BMP280;60848;53.884;11.446;2023-09-07T02:59:17;102239.41;;;18.38
28905;BMP280;60848;53.884;11.446;2023-09-07T03:01:45;102242.44;;;18.36
28905;BMP280;60848;53.884;11.446;2023-09-07T03:04:15;102243.56;;;18.35
28905;BMP280;60848;53.884;11.446;2023-09-07T03:06:43;102235.25;;;18.33
28905;BMP280;60848;53.884;11.446;2023-09-07T03:09:12;102251.50;;;18.35
28905;BMP280;60848;53.884;11.446;2023-09-07T03:11:41;102243.19;;;18.33
28905;BMP280;60848;53.884;11.446;2023-09-07T03:14:10;102243.16;;;18.30
28905;BMP280;60848;53.884;11.446;2023-09-07T03:16:41;102243.56;;;18.32
28905;BMP280;60848;53.884;11.446;2023-09-07T03:19:09;102245.09;;;18.33
28905;BMP280;60848;53.884;11.446;2023-09-07T03:21:39;102242.44;;;18.33
28905;BMP280;60848;53.884;11.446;2023-09-07T03:24:08;102248.84;;;18.35
28905;BMP280;60848;53.884;11.446;2023-09-07T03:26:36;102246.97;;;18.32
28905;BMP280;60848;53.884;11.446;2023-09-07T03:29:05;102238.28;;;18.32
28905;BMP280;60848;53.884;11.446;2023-09-07T03:31:33;102235.22;;;18.30
28905;BMP280;60848;53.884;11.446;2023-09-07T03:34:03;102248.09;;;18.28
28905;BMP280;60848;53.884;11.446;2023-09-07T03:36:33;102251.91;;;18.27
28905;BMP280;60848;53.884;11.446;2023-09-07T03:39:03;102240.16;;;18.24
28905;BMP280;60848;53.884;11.446;2023-09-07T03:41:35;102260.59;;;18.20
28905;BMP280;60848;53.884;11.446;2023-09-07T03:44:05;102254.53;;;18.16
28905;BMP280;60848;53.884;11.446;2023-09-07T03:46:33;102254.91;;;18.15
28905;BMP280;60848;53.884;11.446;2023-09-07T03:49:04;102254.91;;;18.15
28905;BMP280;60848;53.884;11.446;2023-09-07T03:51:35;102258.28;;;18.12
28905;BMP280;60848;53.884;11.446;2023-09-07T03:54:06;102256.03;;;18.10
28905;BMP280;60848;53.884;11.446;2023-09-07T03:56:36;102261.72;;;18.12
28905;BMP280;60848;53.884;11.446;2023-09-07T03:59:08;102254.88;;;18.08
28905;BMP280;60848;53.884;11.446;2023-09-07T04:01:38;102265.84;;;18.03
28905;BMP280;60848;53.884;11.446;2023-09-07T04:04:06;102255.25;;;17.96
28905;BMP280;60848;53.884;11.446;2023-09-07T04:06:35;102261.66;;;17.95
28905;BMP280;60848;53.884;11.446;2023-09-07T04:09:04;102266.94;;;17.95
28905;BMP280;60848;53.884;11.446;2023-09-07T04:11:34;102261.66;;;17.95
28905;BMP280;60848;53.884;11.446;2023-09-07T04:14:03;102261.25;;;17.93
28905;BMP280;60848;53.884;11.446;2023-09-07T04:16:34;102262.03;;;17.90
28905;BMP280;60848;53.884;11.446;2023-09-07T04:19:02;102265.44;;;17.90
28905;BMP280;60848;53.884;11.446;2023-09-07T04:21:30;102255.19;;;17.89
28905;BMP280;60848;53.884;11.446;2023-09-07T04:23:59;102266.19;;;17.87
28905;BMP280;60848;53.884;11.446;2023-09-07T04:26:27;102264.69;;;17.86
28905;BMP280;60848;53.884;11.446;2023-09-07T04:29:00;102272.63;;;17.86
28905;BMP280;60848;53.884;11.446;2023-09-07T04:31:29;102266.19;;;17.87
28905;BMP280;60848;53.884;11.446;2023-09-07T04:33:58;102258.25;;;17.87
28905;BMP280;60848;53.884;11.446;2023-09-07T04:36:27;102271.09;;;17.85
28905;BMP280;60848;53.884;11.446;2023-09-07T04:38:56;102273.34;;;17.87
28905;BMP280;60848;53.884;11.446;2023-09-07T04:41:24;102267.66;;;17.85
28905;BMP280;60848;53.884;11.446;2023-09-07T04:43:53;102267.31;;;17.83
28905;BMP280;60848;53.884;11.446;2023-09-07T04:46:26;102279.78;;;17.82
28905;BMP280;60848;53.884;11.446;2023-09-07T04:48:55;102277.50;;;17.81
28905;BMP280;60848;53.884;11.446;2023-09-07T04:51:24;102282.03;;;17.80
28905;BMP280;60848;53.884;11.446;2023-09-07T04:53:53;102283.56;;;17.85
28905;BMP280;60848;53.884;11.446;2023-09-07T04:56:21;102283.22;;;17.86
28905;BMP280;60848;53.884;11.446;2023-09-07T04:58:53;102294.16;;;17.88
28905;BMP280;60848;53.884;11.446;2023-09-07T05:01:21;102293.78;;;17.93
28905;BMP280;60848;53.884;11.446;2023-09-07T05:03:54;102291.19;;;17.97
28905;BMP280;60848;53.884;11.446;2023-09-07T05:06:22;102288.91;;;18.02
28905;BMP280;60848;53.884;11.446;2023-09-07T05:08:51;102296.47;;;18.07
28905;BMP280;60848;53.884;11.446;2023-09-07T05:11:20;102295.75;;;18.17
28905;BMP280;60848;53.884;11.446;2023-09-07T05:13:51;102292.38;;;18.27
28905;BMP280;60848;53.884;11.446;2023-09-07T05:16:19;102301.84;;;18.39
28905;BMP280;60848;53.884;11.446;2023-09-07T05:18:48;102293.91;;;18.53
28905;BMP280;60848;53.884;11.446;2023-09-07T05:21:21;102299.63;;;18.66
28905;BMP280;60848;53.884;11.446;2023-09-07T05:23:52;102298.88;;;18.79
28905;BMP280;60848;53.884;11.446;2023-09-07T05:26:21;102301.13;;;18.91
28905;BMP280;60848;53.884;11.446;2023-09-07T05:28:51;102304.13;;;19.00
28905;BMP280;60848;53.884;11.446;2023-09-07T05:31:20;102306.75;;;19.14
28905;BMP280;60848;53.884;11.446;2023-09-07T05:33:48;102307.09;;;19.27
28905;BMP280;60848;53.884;11.446;2023-09-07T05:36:18;102313.13;;;19.48
28905;BMP280;60848;53.884;11.446;2023-09-07T05:38:48;102309.59;;;19.72
28905;BMP280;60848;53.884;11.446;2023-09-07T05:41:17;102312.16;;;19.97
28905;BMP280;60848;53.884;11.446;2023-09-07T05:43:45;102314.66;;;20.18
28905;BMP280;60848;53.884;11.446;2023-09-07T05:46:14;102312.63;;;20.36
28905;BMP280;60848;53.884;11.446;2023-09-07T05:48:42;102312.88;;;20.55
28905;BMP280;60848;53.884;11.446;2023-09-07T05:51:11;102322.53;;;20.76
28905;BMP280;60848;53.884;11.446;2023-09-07T05:53:40;102315.53;;;20.96
28905;BMP280;60848;53.884;11.446;2023-09-07T05:56:10;102321.69;;;21.23
28905;BMP280;60848;53.884;11.446;2023-09-07T05:58:38;102319.19;;;21.42
28905;BMP280;60848;53.884;11.446;2023-09-07T06:01:07;102329.53;;;21.67
28905;BMP280;60848;53.884;11.446;2023-09-07T06:03:35;102327.63;;;21.94
28905;BMP280;60848;53.884;11.446;2023-09-07T06:06:06;102331.00;;;22.24
28905;BMP280;60848;53.884;11.446;2023-09-07T06:08:35;102335.06;;;22.52
28905;BMP280;60848;53.884;11.446;2023-09-07T06:11:03;102325.13;;;22.75
28905;BMP280;60848;53.884;11.446;2023-09-07T06:13:34;102334.13;;;23.04
28905;BMP280;60848;53.884;11.446;2023-09-07T06:16:03;102335.88;;;23.30
28905;BMP280;60848;53.884;11.446;2023-09-07T06:18:34;102337.06;;;23.65
28905;BMP280;60848;53.884;11.446;2023-09-07T06:21:02;102333.47;;;24.04
28905;BMP280;60848;53.884;11.446;2023-09-07T06:23:34;102342.91;;;24.40
28905;BMP280;60848;53.884;11.446;2023-09-07T06:26:02;102331.72;;;24.86
28905;BMP280;60848;53.884;11.446;2023-09-07T06:28:31;102337.25;;;25.33
28905;BMP280;60848;53.884;11.446;2023-09-07T06:31:02;102341.44;;;25.71
28905;BMP280;60848;53.884;11.446;2023-09-07T06:33:32;102338.88;;;26.14
28905;BMP280;60848;53.884;11.446;2023-09-07T06:36:00;102347.84;;;26.54
28905;BMP280;60848;53.884;11.446;2023-09-07T06:38:30;102350.91;;;26.65
28905;BMP280;60848;53.884;11.446;2023-09-07T06:40:59;102342.72;;;26.69
28905;BMP280;60848;53.884;11.446;2023-09-07T06:43:30;102343.44;;;26.69
28905;BMP280;60848;53.884;11.446;2023-09-07T06:46:07;102338.38;;;26.62
28905;BMP280;60848;53.884;11.446;2023-09-07T06:48:36;102335.78;;;26.59
28905;BMP280;60848;53.884;11.446;2023-09-07T06:51:05;102343.28;;;26.64
28905;BMP280;60848;53.884;11.446;2023-09-07T06:53:35;102340.09;;;26.78
28905;BMP280;60848;53.884;11.446;2023-09-07T06:56:24;102334.72;;;27.08
28905;BMP280;60848;53.884;11.446;2023-09-07T06:58:53;102337.03;;;27.28
28905;BMP280;60848;53.884;11.446;2023-09-07T07:01:26;102344.13;;;27.52
28905;BMP280;60848;53.884;11.446;2023-09-07T07:03:55;102349.84;;;27.72
28905;BMP280;60848;53.884;11.446;2023-09-07T07:06:25;102348.19;;;27.83
28905;BMP280;60848;53.884;11.446;2023-09-07T07:08:54;102338.34;;;27.89
28905;BMP280;60848;53.884;11.446;2023-09-07T07:11:22;102342.25;;;27.88
28905;BMP280;60848;53.884;11.446;2023-09-07T07:13:51;102347.03;;;27.84
28905;BMP280;60848;53.884;11.446;2023-09-07T07:16:19;102344.19;;;27.88
28905;BMP280;60848;53.884;11.446;2023-09-07T07:18:51;102348.47;;;27.58
28905;BMP280;60848;53.884;11.446;2023-09-07T07:21:20;102337.84;;;27.07
28905;BMP280;60848;53.884;11.446;2023-09-07T07:23:48;102339.81;;;26.63
28905;BMP280;60848;53.884;11.446;2023-09-07T07:26:19;102339.59;;;26.27
28905;BMP280;60848;53.884;11.446;2023-09-07T07:28:48;102338.16;;;25.89
28905;BMP280;60848;53.884;11.446;2023-09-07T07:31:19;102340.59;;;25.49
28905;BMP280;60848;53.884;11.446;2023-09-07T07:33:50;102346.38;;;25.35
28905;BMP280;60848;53.884;11.446;2023-09-07T07:36:19;102342.59;;;25.20
28905;BMP280;60848;53.884;11.446;2023-09-07T07:38:48;102350.94;;;25.10
28905;BMP280;60848;53.884;11.446;2023-09-07T07:41:18;102345.16;;;24.99
28905;BMP280;60848;53.884;11.446;2023-09-07T07:43:46;102347.84;;;24.99
28905;BMP280;60848;53.884;11.446;2023-09-07T07:46:15;102352.13;;;25.09
28905;BMP280;60848;53.884;11.446;2023-09-07T07:48:47;102354.38;;;25.10
28905;BMP280;60848;53.884;11.446;2023-09-07T07:51:17;102350.22;;;25.09
28905;BMP280;60848;53.884;11.446;2023-09-07T07:53:49;102349.88;;;25.20
28905;BMP280;60848;53.884;11.446;2023-09-07T07:56:20;102352.25;;;25.30
28905;BMP280;60848;53.884;11.446;2023-09-07T07:58:51;102347.75;;;25.27
28905;BMP280;60848;53.884;11.446;2023-09-07T08:01:20;102355.50;;;25.25
28905;BMP280;60848;53.884;11.446;2023-09-07T08:03:51;102353.97;;;25.24
28905;BMP280;60848;53.884;11.446;2023-09-07T08:06:23;102355.22;;;25.20
28905;BMP280;60848;53.884;11.446;2023-09-07T08:08:51;102345.16;;;25.24
28905;BMP280;60848;53.884;11.446;2023-09-07T08:11:20;102355.38;;;25.41
28905;BMP280;60848;53.884;11.446;2023-09-07T08:13:52;102353.63;;;25.60
28905;BMP280;60848;53.884;11.446;2023-09-07T08:16:21;102351.06;;;25.81
28905;BMP280;60848;53.884;11.446;2023-09-07T08:18:50;102351.22;;;26.12
28905;BMP280;60848;53.884;11.446;2023-09-07T08:21:19;102350.16;;;26.31
28905;BMP280;60848;53.884;11.446;2023-09-07T08:23:49;102348.56;;;26.55
28905;BMP280;60848;53.884;11.446;2023-09-07T08:26:20;102346.53;;;26.59
28905;BMP280;60848;53.884;11.446;2023-09-07T08:28:48;102354.81;;;26.73
28905;BMP280;60848;53.884;11.446;2023-09-07T08:31:17;102349.91;;;27.02
28905;BMP280;60848;53.884;11.446;2023-09-07T08:33:51;102345.41;;;27.30
28905;BMP280;60848;53.884;11.446;2023-09-07T08:36:22;102354.56;;;27.50
28905;BMP280;60848;53.884;11.446;2023-09-07T08:38:52;102357.91;;;27.63
28905;BMP280;60848;53.884;11.446;2023-09-07T08:41:24;102354.94;;;27.70
28905;BMP280;60848;53.884;11.446;2023-09-07T08:43:55;102357.91;;;27.63
28905;BMP280;60848;53.884;11.446;2023-09-07T08:46:25;102354.94;;;27.70
28905;BMP280;60848;53.884;11.446;2023-09-07T08:48:54;102351.94;;;27.77
28905;BMP280;60848;53.884;11.446;2023-09-07T08:51:28;102349.13;;;27.98
28905;BMP280;60848;53.884;11.446;2023-09-07T08:54:00;102344.78;;;28.19
28905;BMP280;60848;53.884;11.446;2023-09-07T08:56:30;102351.03;;;28.34
28905;BMP280;60848;53.884;11.446;2023-09-07T08:58:58;102343.25;;;28.45
28905;BMP280;60848;53.884;11.446;2023-09-07T09:01:28;102345.63;;;28.52
28905;BMP280;60848;53.884;11.446;2023-09-07T09:03:59;102351.31;;;28.54
28905;BMP280;60848;53.884;11.446;2023-09-07T09:06:27;102352.63;;;28.67
28905;BMP280;60848;53.884;11.446;2023-09-07T09:08:56;102356.00;;;28.86
28905;BMP280;60848;53.884;11.446;2023-09-07T09:11:28;102356.00;;;28.95
28905;BMP280;60848;53.884;11.446;2023-09-07T09:13:57;102362.59;;;28.94
28905;BMP280;60848;53.884;11.446;2023-09-07T09:16:25;102359.13;;;28.93
28905;BMP280;60848;53.884;11.446;2023-09-07T09:18:55;102360.16;;;28.96
28905;BMP280;60848;53.884;11.446;2023-09-07T09:21:25;102361.19;;;28.98
28905;BMP280;60848;53.884;11.446;2023-09-07T09:23:55;102363.28;;;29.03
28905;BMP280;60848;53.884;11.446;2023-09-07T09:26:26;102353.84;;;28.99
28905;BMP280;60848;53.884;11.446;2023-09-07T09:29:00;102352.03;;;29.05
28905;BMP280;60848;53.884;11.446;2023-09-07T09:31:29;102342.88;;;29.11
28905;BMP280;60848;53.884;11.446;2023-09-07T09:33:58;102358.28;;;29.20
28905;BMP280;60848;53.884;11.446;2023-09-07T09:36:33;102361.66;;;29.29
28905;BMP280;60848;53.884;11.446;2023-09-07T09:39:04;102345.94;;;29.28
28905;BMP280;60848;53.884;11.446;2023-09-07T09:41:33;102346.94;;;29.30
28905;BMP280;60848;53.884;11.446;2023-09-07T09:44:04;102342.59;;;29.33
28905;BMP280;60848;53.884;11.446;2023-09-07T09:46:33;102341.69;;;29.36
28905;BMP280;60848;53.884;11.446;2023-09-07T09:49:03;102331.34;;;29.34
28905;BMP280;60848;53.884;11.446;2023-09-07T09:51:34;102333.78;;;29.32
28905;BMP280;60848;53.884;11.446;2023-09-07T09:54:03;102331.81;;;29.33
28905;BMP280;60848;53.884;11.446;2023-09-07T09:56:31;102327.06;;;29.28
28905;BMP280;60848;53.884;11.446;2023-09-07T09:59:01;102327.16;;;29.33
28905;BMP280;60848;53.884;11.446;2023-09-07T10:01:37;102332.63;;;29.48
28905;BMP280;60848;53.884;11.446;2023-09-07T10:04:08;102324.00;;;29.58
28905;BMP280;60848;53.884;11.446;2023-09-07T10:06:37;102328.47;;;29.61
28905;BMP280;60848;53.884;11.446;2023-09-07T10:09:06;102322.38;;;29.75
28905;BMP280;60848;53.884;11.446;2023-09-07T10:11:38;102333.41;;;29.86
28905;BMP280;60848;53.884;11.446;2023-09-07T10:14:09;102318.75;;;29.93
28905;BMP280;60848;53.884;11.446;2023-09-07T10:16:45;102324.94;;;30.08
28905;BMP280;60848;53.884;11.446;2023-09-07T10:19:16;102318.78;;;30.07
28905;BMP280;60848;53.884;11.446;2023-09-07T10:21:44;102312.28;;;30.14
28905;BMP280;60848;53.884;11.446;2023-09-07T10:24:23;102316.84;;;30.22
28905;BMP280;60848;53.884;11.446;2023-09-07T10:26:58;102313.88;;;30.35
28905;BMP280;60848;53.884;11.446;2023-09-07T10:29:27;102309.66;;;30.48
28905;BMP280;60848;53.884;11.446;2023-09-07T10:32:05;102312.66;;;30.50
28905;BMP280;60848;53.884;11.446;2023-09-07T10:34:34;102302.75;;;30.47
28905;BMP280;60848;53.884;11.446;2023-09-07T10:37:05;102294.09;;;30.43
28905;BMP280;60848;53.884;11.446;2023-09-07T10:39:36;102293.75;;;30.36
28905;BMP280;60848;53.884;11.446;2023-09-07T10:42:06;102306.31;;;30.39
28905;BMP280;60848;53.884;11.446;2023-09-07T10:44:35;102295.03;;;30.40
28905;BMP280;60848;53.884;11.446;2023-09-07T10:47:04;102293.66;;;30.45
28905;BMP280;60848;53.884;11.446;2023-09-07T10:49:36;102288.41;;;30.41
28905;BMP280;60848;53.884;11.446;2023-09-07T10:52:07;102284.03;;;30.44
28905;BMP280;60848;53.884;11.446;2023-09-07T10:54:36;102269.13;;;30.48
28905;BMP280;60848;53.884;11.446;2023-09-07T10:57:08;102281.91;;;30.48
28905;BMP280;60848;53.884;11.446;2023-09-07T10:59:37;102285.56;;;30.45
28905;BMP280;60848;53.884;11.446;2023-09-07T11:02:07;102280.25;;;30.36
28905;BMP280;60848;53.884;11.446;2023-09-07T11:04:36;102268.25;;;30.37
28905;BMP280;60848;53.884;11.446;2023-09-07T11:07:04;102274.66;;;30.39
28905;BMP280;60848;53.884;11.446;2023-09-07T11:09:33;102278.81;;;30.55
28905;BMP280;60848;53.884;11.446;2023-09-07T11:12:05;102264.78;;;30.71
28905;BMP280;60848;53.884;11.446;2023-09-07T11:14:33;102264.25;;;30.87
28905;BMP280;60848;53.884;11.446;2023-09-07T11:17:02;102255.47;;;30.92
28905;BMP280;60848;53.884;11.446;2023-09-07T11:19:33;102258.66;;;30.90
28905;BMP280;60848;53.884;11.446;2023-09-07T11:22:02;102253.69;;;30.83
28905;BMP280;60848;53.884;11.446;2023-09-07T11:24:31;102264.59;;;30.74
28905;BMP280;60848;53.884;11.446;2023-09-07T11:27:00;102261.13;;;30.74
28905;BMP280;60848;53.884;11.446;2023-09-07T11:29:31;102251.84;;;30.75
28905;BMP280;60848;53.884;11.446;2023-09-07T11:32:06;102248.31;;;30.69
28905;BMP280;60848;53.884;11.446;2023-09-07T11:34:46;102262.16;;;30.76
28905;BMP280;60848;53.884;11.446;2023-09-07T11:37:16;102255.06;;;30.79
28905;BMP280;60848;53.884;11.446;2023-09-07T11:39:44;102248.97;;;30.84
28905;BMP280;60848;53.884;11.446;2023-09-07T11:42:13;102249.34;;;30.91
28905;BMP280;60848;53.884;11.446;2023-09-07T11:44:41;102246.97;;;30.99
28905;BMP280;60848;53.884;11.446;2023-09-07T11:47:12;102246.63;;;31.11
28905;BMP280;60848;53.884;11.446;2023-09-07T11:49:45;102257.28;;;31.20
28905;BMP280;60848;53.884;11.446;2023-09-07T11:52:15;102249.31;;;31.31
28905;BMP280;60848;53.884;11.446;2023-09-07T11:54:44;102243.81;;;31.46
28905;BMP280;60848;53.884;11.446;2023-09-07T11:57:13;102243.44;;;31.58
28905;BMP280;60848;53.884;11.446;2023-09-07T11:59:43;102248.91;;;31.64
28905;BMP280;60848;53.884;11.446;2023-09-07T12:02:25;102242.34;;;31.76
28905;BMP280;60848;53.884;11.446;2023-09-07T12:04:56;102238.84;;;32.01
28905;BMP280;60848;53.884;11.446;2023-09-07T12:07:24;102245.38;;;32.14
28905;BMP280;60848;53.884;11.446;2023-09-07T12:09:53;102235.00;;;32.13
28905;BMP280;60848;53.884;11.446;2023-09-07T12:12:23;102257.44;;;32.19
28905;BMP280;60848;53.884;11.446;2023-09-07T12:14:52;102228.63;;;32.16
28905;BMP280;60848;53.884;11.446;2023-09-07T12:17:20;102225.75;;;32.30
28905;BMP280;60848;53.884;11.446;2023-09-07T12:19:49;102229.97;;;32.37
28905;BMP280;60848;53.884;11.446;2023-09-07T12:22:22;102224.56;;;32.37
28905;BMP280;60848;53.884;11.446;2023-09-07T12:24:50;102228.50;;;32.41
28905;BMP280;60848;53.884;11.446;2023-09-07T12:27:36;102218.22;;;32.45
28905;BMP280;60848;53.884;11.446;2023-09-07T12:30:20;102216.25;;;32.51
28905;BMP280;60848;53.884;11.446;2023-09-07T12:32:50;102218.78;;;32.65
28905;BMP280;60848;53.884;11.446;2023-09-07T12:35:19;102206.25;;;32.73
28905;BMP280;60848;53.884;11.446;2023-09-07T12:37:51;102206.94;;;32.68
28905;BMP280;60848;53.884;11.446;2023-09-07T12:40:20;102197.84;;;32.66
28905;BMP280;60848;53.884;11.446;2023-09-07T12:42:49;102216.34;;;32.67
28905;BMP280;60848;53.884;11.446;2023-09-07T12:45:18;102199.53;;;32.63
28905;BMP280;60848;53.884;11.446;2023-09-07T12:47:46;102203.44;;;32.51
28905;BMP280;60848;53.884;11.446;2023-09-07T12:50:18;102199.97;;;32.40
28905;BMP280;60848;53.884;11.446;2023-09-07T12:52:46;102195.50;;;32.37
28905;BMP280;60848;53.884;11.446;2023-09-07T12:55:16;102200.16;;;32.31
28905;BMP280;60848;53.884;11.446;2023-09-07T12:57:46;102184.88;;;32.28
28905;BMP280;60848;53.884;11.446;2023-09-07T13:00:14;102191.41;;;32.11
28905;BMP280;60848;53.884;11.446;2023-09-07T13:02:43;102188.66;;;32.00
28905;BMP280;60848;53.884;11.446;2023-09-07T13:05:11;102193.06;;;31.97
28905;BMP280;60848;53.884;11.446;2023-09-07T13:07:40;102182.97;;;31.98
28905;BMP280;60848;53.884;11.446;2023-09-07T13:10:11;102187.13;;;31.99
28905;BMP280;60848;53.884;11.446;2023-09-07T13:12:43;102188.31;;;31.92
28905;BMP280;60848;53.884;11.446;2023-09-07T13:15:11;102183.06;;;31.78
28905;BMP280;60848;53.884;11.446;2023-09-07T13:17:42;102182.03;;;31.70
28905;BMP280;60848;53.884;11.446;2023-09-07T13:20:11;102183.34;;;31.54
28905;BMP280;60848;53.884;11.446;2023-09-07T13:22:40;102181.25;;;31.38
28905;BMP280;60848;53.884;11.446;2023-09-07T13:25:12;102169.66;;;31.38
28905;BMP280;60848;53.884;11.446;2023-09-07T13:27:40;102184.22;;;31.40
28905;BMP280;60848;53.884;11.446;2023-09-07T13:30:10;102172.63;;;31.34
28905;BMP280;60848;53.884;11.446;2023-09-07T13:32:39;102177.94;;;31.23
28905;BMP280;60848;53.884;11.446;2023-09-07T13:35:10;102170.66;;;31.09
28905;BMP280;60848;53.884;11.446;2023-09-07T13:37:41;102170.09;;;31.05
28905;BMP280;60848;53.884;11.446;2023-09-07T13:40:10;102173.03;;;31.02
28905;BMP280;60848;53.884;11.446;2023-09-07T13:42:42;102161.91;;;30.94
28905;BMP280;60848;53.884;11.446;2023-09-07T13:45:13;102165.56;;;30.91
28905;BMP280;60848;53.884;11.446;2023-09-07T13:47:42;102161.50;;;30.81
28905;BMP280;60848;53.884;11.446;2023-09-07T13:50:12;102163.84;;;30.74
28905;BMP280;60848;53.884;11.446;2023-09-07T13:52:43;102153.91;;;30.65
28905;BMP280;60848;53.884;11.446;2023-09-07T13:55:12;102158.44;;;30.54
28905;BMP280;60848;53.884;11.446;2023-09-07T13:57:43;102159.22;;;30.40
28905;BMP280;60848;53.884;11.446;2023-09-07T14:00:15;102167.41;;;30.25